Time;durP1;ratioP1;P1;durP2;ratioP2;P2;SDS_P1;SDS_P2;PMS_P1;PMS_P2;Temp;Humidity;BMP_temperature;BMP_pressure;BME280_temperature;BME280_humidity;BME280_pressure;Samples;Min_cycle;Max_cycle;Signal;HPM_P1;HPM_P2
2022/05/29 00:00:09;;;;;;;4.78;1.42;;;;;;;;;;4969500;28;20513;-68
2022/05/29 00:02:34;;;;;;;7.70;1.50;;;;;;;;;;4981826;28;20041;-68
2022/05/29 00:05:00;;;;;;;5.18;1.63;;;;;;;;;;4984065;28;20084;-69
2022/05/29 00:07:25;;;;;;;8.13;1.58;;;;;;;;;;4983261;28;20358;-68
2022/05/29 00:09:54;;;;;;;5.22;1.60;;;;;;;;;;4980594;28;20077;-68
2022/05/29 00:12:21;;;;;;;4.88;1.60;;;;;;;;;;4980855;28;20030;-68
2022/05/29 00:14:47;;;;;;;6.15;2.03;;;;;;;;;;4980416;28;20224;-69
2022/05/29 00:17:13;;;;;;;4.97;1.50;;;;;;;;;;4983258;28;20432;-69
2022/05/29 00:19:39;;;;;;;7.40;1.75;;;;;;;;;;4980219;28;20476;-69
2022/05/29 00:22:05;;;;;;;5.82;1.70;;;;;;;;;;4966624;28;20022;-68
2022/05/29 00:24:31;;;;;;;8.55;2.00;;;;;;;;;;4984192;28;20121;-68
2022/05/29 00:26:57;;;;;;;7.65;2.00;;;;;;;;;;4961467;28;20329;-68
2022/05/29 00:29:23;;;;;;;7.30;1.63;;;;;;;;;;4982995;28;20047;-69
2022/05/29 00:31:48;;;;;;;10.85;2.13;;;;;;;;;;4965939;28;20306;-68
2022/05/29 00:34:13;;;;;;;7.57;1.90;;;;;;;;;;4984684;28;20072;-68
2022/05/29 00:36:39;;;;;;;9.25;2.30;;;;;;;;;;4979368;28;20113;-67
2022/05/29 00:39:06;;;;;;;8.15;2.30;;;;;;;;;;5002921;28;20029;-68
2022/05/29 00:41:33;;;;;;;14.45;2.47;;;;;;;;;;5000157;28;20022;-68
2022/05/29 00:44:05;;;;;;;11.52;2.40;;;;;;;;;;4982099;28;20052;-68
2022/05/29 00:46:31;;;;;;;9.30;2.22;;;;;;;;;;5000765;28;20022;-69
2022/05/29 00:48:57;;;;;;;6.30;2.20;;;;;;;;;;4966227;28;20499;-69
2022/05/29 00:51:23;;;;;;;7.65;2.17;;;;;;;;;;4980652;28;20034;-69
2022/05/29 00:53:49;;;;;;;8.02;2.20;;;;;;;;;;4997823;28;20274;-70
2022/05/29 00:56:14;;;;;;;11.50;2.70;;;;;;;;;;4982111;28;20022;-68
2022/05/29 00:58:40;;;;;;;9.25;2.20;;;;;;;;;;4998747;28;20434;-68
2022/05/29 01:01:06;;;;;;;7.13;2.13;;;;;;;;;;4985119;28;20056;-69
2022/05/29 01:03:31;;;;;;;9.32;2.17;;;;;;;;;;4983253;28;20072;-68
2022/05/29 01:05:56;;;;;;;11.95;2.53;;;;;;;;;;5000934;28;20030;-68
2022/05/29 01:08:24;;;;;;;8.55;2.40;;;;;;;;;;5000073;28;20041;-68
2022/05/29 01:10:49;;;;;;;15.00;3.35;;;;;;;;;;4980079;28;20092;-69
2022/05/29 01:13:17;;;;;;;10.32;2.35;;;;;;;;;;4982854;28;20052;-68
2022/05/29 01:15:49;;;;;;;7.80;2.22;;;;;;;;;;4983857;28;20054;-68
2022/05/29 01:18:34;;;;;;;11.50;2.20;;;;;;;;;;5001157;28;20084;-68
2022/05/29 01:21:18;;;;;;;8.70;2.33;;;;;;;;;;5001471;28;20654;-69
2022/05/29 01:23:51;;;;;;;12.45;2.85;;;;;;;;;;5000072;28;20026;-68
2022/05/29 01:26:31;;;;;;;9.38;2.20;;;;;;;;;;4981537;28;20017;-68
2022/05/29 01:28:58;;;;;;;6.25;2.10;;;;;;;;;;4980036;28;20274;-68
2022/05/29 01:31:34;;;;;;;9.30;2.75;;;;;;;;;;4996604;28;20014;-70
2022/05/29 01:34:06;;;;;;;8.68;2.05;;;;;;;;;;4981464;28;20341;-69
2022/05/29 01:36:37;;;;;;;13.55;2.40;;;;;;;;;;5000361;28;20029;-69
2022/05/29 01:39:09;;;;;;;8.88;2.17;;;;;;;;;;4982286;28;20258;-70
2022/05/29 01:41:36;;;;;;;7.57;1.95;;;;;;;;;;4997587;28;20071;-68
2022/05/29 01:44:09;;;;;;;9.65;2.35;;;;;;;;;;4978637;28;20319;-70
2022/05/29 01:46:36;;;;;;;10.35;2.45;;;;;;;;;;4982695;28;20037;-69
2022/05/29 01:49:13;;;;;;;9.40;1.70;;;;;;;;;;4979917;28;20357;-68
2022/05/29 01:51:50;;;;;;;3.90;1.63;;;;;;;;;;4980578;28;20026;-69
2022/05/29 01:54:15;;;;;;;6.65;1.75;;;;;;;;;;4982362;28;20472;-68
2022/05/29 01:56:43;;;;;;;10.63;2.17;;;;;;;;;;4979960;28;20025;-69
2022/05/29 01:59:16;;;;;;;6.80;2.00;;;;;;;;;;4984112;28;20033;-68
2022/05/29 02:01:54;;;;;;;8.57;2.45;;;;;;;;;;4978410;28;20022;-68
2022/05/29 02:04:22;;;;;;;9.95;1.95;;;;;;;;;;4999924;28;20052;-68
2022/05/29 02:09:38;;;;;;;12.57;2.97;;;;;;;;;;5000122;28;20029;-68
2022/05/29 02:12:07;;;;;;;11.88;2.40;;;;;;;;;;4979329;28;20254;-68
2022/05/29 02:14:35;;;;;;;8.10;2.15;;;;;;;;;;4984558;28;20088;-68
2022/05/29 02:17:21;;;;;;;7.57;1.77;;;;;;;;;;4976554;28;20044;-69
2022/05/29 02:19:50;;;;;;;11.32;2.20;;;;;;;;;;4981462;28;20111;-67
2022/05/29 02:22:27;;;;;;;10.18;2.80;;;;;;;;;;4980081;28;20095;-68
2022/05/29 02:25:13;;;;;;;9.25;2.35;;;;;;;;;;4997797;28;20344;-68
2022/05/29 02:27:38;;;;;;;7.88;1.90;;;;;;;;;;5000777;28;20136;-69
2022/05/29 02:30:04;;;;;;;9.48;2.63;;;;;;;;;;4996525;28;20553;-69
2022/05/29 02:32:48;;;;;;;9.30;2.22;;;;;;;;;;4982519;28;20445;-69
2022/05/29 02:35:34;;;;;;;12.85;2.20;;;;;;;;;;4981968;28;20029;-69
2022/05/29 02:38:05;;;;;;;9.93;2.20;;;;;;;;;;4980654;28;20050;-68
2022/05/29 02:40:37;;;;;;;6.55;3.30;;;;;;;;;;4980876;28;20018;-69
2022/05/29 02:43:38;;;;;;;8.15;1.92;;;;;;;;;;4975978;28;20057;-70
2022/05/29 02:46:06;;;;;;;5.55;1.75;;;;;;;;;;4918727;29;20040;-69
2022/05/29 02:48:46;;;;;;;9.95;2.20;;;;;;;;;;4967435;28;20029;-69
2022/05/29 02:51:17;;;;;;;9.40;1.98;;;;;;;;;;4979972;28;20076;-69
2022/05/29 02:53:43;;;;;;;7.55;1.63;;;;;;;;;;4997831;28;20017;-69
2022/05/29 02:56:09;;;;;;;5.20;1.65;;;;;;;;;;4975273;28;20317;-68
2022/05/29 02:58:35;;;;;;;8.10;1.63;;;;;;;;;;4977903;28;20026;-67
2022/05/29 03:01:17;;;;;;;5.25;1.70;;;;;;;;;;4962525;28;20026;-68
2022/05/29 03:03:42;;;;;;;7.03;1.98;;;;;;;;;;4996082;28;20041;-68
2022/05/29 03:06:16;;;;;;;5.85;1.90;;;;;;;;;;4996350;28;20029;-69
2022/05/29 03:08:44;;;;;;;12.55;2.05;;;;;;;;;;4998562;28;20026;-71
2022/05/29 03:11:16;;;;;;;9.23;2.20;;;;;;;;;;4978399;28;20072;-71
2022/05/29 03:13:51;;;;;;;12.02;2.45;;;;;;;;;;4982322;28;20053;-71
2022/05/29 03:16:35;;;;;;;13.20;3.17;;;;;;;;;;4984441;28;20026;-71
2022/05/29 03:19:17;;;;;;;9.05;2.13;;;;;;;;;;4980562;28;20049;-70
2022/05/29 03:21:55;;;;;;;9.15;3.08;;;;;;;;;;4984020;28;20048;-70
2022/05/29 03:24:24;;;;;;;8.77;1.90;;;;;;;;;;4984676;28;20022;-70
2022/05/29 03:26:53;;;;;;;5.97;2.03;;;;;;;;;;4981506;28;20033;-70
2022/05/29 03:29:30;;;;;;;9.70;2.10;;;;;;;;;;4982518;28;20095;-69
2022/05/29 03:31:55;;;;;;;9.48;2.50;;;;;;;;;;4980612;28;20304;-68
2022/05/29 03:34:21;;;;;;;7.90;2.72;;;;;;;;;;4983798;28;20747;-70
2022/05/29 03:36:48;;;;;;;7.30;1.80;;;;;;;;;;4984249;28;20118;-68
2022/05/29 03:39:14;;;;;;;7.25;2.03;;;;;;;;;;4983045;28;20337;-69
2022/05/29 03:41:44;;;;;;;4.38;1.42;;;;;;;;;;5001182;28;20456;-69
2022/05/29 03:44:10;;;;;;;5.25;1.40;;;;;;;;;;4998348;28;20782;-69
2022/05/29 03:46:39;;;;;;;6.20;2.00;;;;;;;;;;5000178;28;20085;-68
2022/05/29 03:49:07;;;;;;;8.38;1.73;;;;;;;;;;4967777;28;20552;-70
2022/05/29 03:51:33;;;;;;;9.85;1.95;;;;;;;;;;4983562;28;20495;-69
2022/05/29 03:54:00;;;;;;;6.75;2.10;;;;;;;;;;4982183;28;20022;-71
2022/05/29 03:56:25;;;;;;;5.45;1.98;;;;;;;;;;4985300;28;20429;-69
2022/05/29 03:58:50;;;;;;;6.72;1.85;;;;;;;;;;5000024;28;20096;-69
2022/05/29 04:01:16;;;;;;;7.10;2.10;;;;;;;;;;4982635;28;20033;-69
2022/05/29 04:03:41;;;;;;;10.98;2.38;;;;;;;;;;4964745;28;20503;-69
2022/05/29 04:06:06;;;;;;;8.23;2.47;;;;;;;;;;5002164;28;20491;-69
2022/05/29 04:14:00;;;;;;;5.22;1.90;;;;;;;;;;4998332;28;20036;-67
2022/05/29 04:16:26;;;;;;;6.25;1.88;;;;;;;;;;4983705;28;20018;-69
2022/05/29 04:18:51;;;;;;;6.68;1.90;;;;;;;;;;5000057;28;20212;-69
2022/05/29 04:21:16;;;;;;;11.27;2.13;;;;;;;;;;4979853;28;20652;-69
2022/05/29 04:23:41;;;;;;;5.93;1.67;;;;;;;;;;4983822;28;20110;-68
2022/05/29 04:26:07;;;;;;;7.57;1.80;;;;;;;;;;4966270;28;20087;-68
2022/05/29 04:28:32;;;;;;;5.70;1.90;;;;;;;;;;4968994;28;20038;-69
2022/05/29 04:30:58;;;;;;;5.55;1.92;;;;;;;;;;4976840;28;20333;-68
2022/05/29 04:33:24;;;;;;;5.82;2.10;;;;;;;;;;4965002;28;20392;-69
2022/05/29 04:35:50;;;;;;;6.07;2.20;;;;;;;;;;4999470;28;20022;-69
2022/05/29 04:38:16;;;;;;;7.97;2.35;;;;;;;;;;5004008;28;20291;-69
2022/05/29 04:40:42;;;;;;;6.57;2.47;;;;;;;;;;5002544;28;20062;-68
2022/05/29 04:43:08;;;;;;;8.65;2.50;;;;;;;;;;4986711;28;21332;-69
2022/05/29 04:45:33;;;;;;;8.35;2.40;;;;;;;;;;4998876;28;20539;-70
2022/05/29 04:47:59;;;;;;;7.10;2.13;;;;;;;;;;4984546;28;20057;-68
2022/05/29 04:50:25;;;;;;;10.45;2.60;;;;;;;;;;4966651;28;20638;-69
2022/05/29 04:52:53;;;;;;;5.15;1.92;;;;;;;;;;4986902;28;20058;-69
2022/05/29 04:55:18;;;;;;;9.65;2.28;;;;;;;;;;4996272;28;20092;-68
2022/05/29 04:57:43;;;;;;;8.68;2.28;;;;;;;;;;5003099;28;20022;-69
2022/05/29 05:00:09;;;;;;;9.05;2.10;;;;;;;;;;4997311;28;20048;-69
2022/05/29 05:02:35;;;;;;;8.80;2.47;;;;;;;;;;4984243;28;20029;-69
2022/05/29 05:05:00;;;;;;;8.77;2.25;;;;;;;;;;4965670;28;20546;-68
2022/05/29 05:07:26;;;;;;;9.27;2.03;;;;;;;;;;4985017;28;20032;-69
2022/05/29 05:09:52;;;;;;;5.72;2.15;;;;;;;;;;5002125;28;20033;-68
2022/05/29 05:12:17;;;;;;;5.68;2.42;;;;;;;;;;4962693;28;20139;-69
2022/05/29 05:14:43;;;;;;;2.80;1.83;;;;;;;;;;5000128;28;20022;-70
2022/05/29 05:17:08;;;;;;;7.82;2.15;;;;;;;;;;4979090;28;20472;-69
2022/05/29 05:19:33;;;;;;;7.55;2.10;;;;;;;;;;5003335;28;20384;-68
2022/05/29 05:22:02;;;;;;;10.50;2.65;;;;;;;;;;5002334;28;20121;-68
2022/05/29 05:24:28;;;;;;;5.93;2.17;;;;;;;;;;4984192;28;20452;-67
2022/05/29 05:26:54;;;;;;;13.40;2.70;;;;;;;;;;4998296;28;20033;-67
2022/05/29 05:29:19;;;;;;;8.93;2.40;;;;;;;;;;4981811;28;20083;-69
2022/05/29 05:31:45;;;;;;;9.45;2.70;;;;;;;;;;4962143;28;20026;-68
2022/05/29 05:34:10;;;;;;;9.60;2.33;;;;;;;;;;4969601;28;20025;-68
2022/05/29 05:36:36;;;;;;;6.88;2.58;;;;;;;;;;4963571;28;20414;-68
2022/05/29 05:39:02;;;;;;;7.72;2.28;;;;;;;;;;4996053;28;20216;-68
2022/05/29 05:41:28;;;;;;;9.43;2.53;;;;;;;;;;4974103;28;20032;-68
2022/05/29 05:43:53;;;;;;;8.50;2.17;;;;;;;;;;4984798;28;20137;-69
2022/05/29 05:46:18;;;;;;;7.07;2.08;;;;;;;;;;4979082;28;20029;-67
2022/05/29 05:48:44;;;;;;;7.13;2.30;;;;;;;;;;4981764;28;20468;-69
2022/05/29 05:51:10;;;;;;;9.13;3.88;;;;;;;;;;4978034;28;20160;-69
2022/05/29 05:53:36;;;;;;;9.48;2.38;;;;;;;;;;5001266;28;20028;-68
2022/05/29 05:56:05;;;;;;;7.57;2.70;;;;;;;;;;4981344;28;20026;-69
2022/05/29 05:58:30;;;;;;;10.10;2.67;;;;;;;;;;4999675;28;20026;-68
2022/05/29 06:00:55;;;;;;;10.50;2.53;;;;;;;;;;4964977;28;20022;-69
2022/05/29 06:03:20;;;;;;;11.48;2.50;;;;;;;;;;4962808;28;20041;-69
2022/05/29 06:05:48;;;;;;;10.80;2.72;;;;;;;;;;5000268;28;20021;-68
2022/05/29 06:08:13;;;;;;;8.98;2.63;;;;;;;;;;4999992;28;20392;-67
2022/05/29 06:10:38;;;;;;;10.85;2.20;;;;;;;;;;4996814;28;20485;-67
2022/05/29 06:13:05;;;;;;;10.52;2.50;;;;;;;;;;5002960;28;20112;-68
2022/05/29 06:15:31;;;;;;;6.50;2.67;;;;;;;;;;4978107;28;20026;-68
2022/05/29 06:17:56;;;;;;;8.27;2.55;;;;;;;;;;4999839;28;20076;-70
2022/05/29 06:20:22;;;;;;;8.68;2.80;;;;;;;;;;4978484;28;20025;-72
2022/05/29 06:22:47;;;;;;;8.35;2.72;;;;;;;;;;4999118;28;20057;-69
2022/05/29 06:25:12;;;;;;;7.72;2.58;;;;;;;;;;4977230;28;20046;-69
2022/05/29 06:27:38;;;;;;;8.48;2.75;;;;;;;;;;5001560;28;20029;-70
2022/05/29 06:30:05;;;;;;;7.07;2.40;;;;;;;;;;4996671;28;20029;-70
2022/05/29 06:32:31;;;;;;;12.98;2.80;;;;;;;;;;4979145;28;20380;-70
2022/05/29 06:34:56;;;;;;;7.38;2.50;;;;;;;;;;4981412;28;20026;-69
2022/05/29 06:37:21;;;;;;;5.68;2.30;;;;;;;;;;4964086;28;20037;-70
2022/05/29 06:39:47;;;;;;;6.90;2.00;;;;;;;;;;4965157;28;20345;-69
2022/05/29 06:42:13;;;;;;;10.00;2.70;;;;;;;;;;4959953;28;20030;-69
2022/05/29 06:44:41;;;;;;;10.88;2.80;;;;;;;;;;5004416;28;20467;-69
2022/05/29 06:47:09;;;;;;;11.38;2.22;;;;;;;;;;4982340;28;20495;-69
2022/05/29 06:49:35;;;;;;;7.60;2.63;;;;;;;;;;4986341;28;20032;-71
2022/05/29 06:52:04;;;;;;;10.70;2.58;;;;;;;;;;5002922;28;20387;-69
2022/05/29 06:54:29;;;;;;;6.55;2.10;;;;;;;;;;5003081;28;20017;-69
2022/05/29 06:56:54;;;;;;;8.55;2.83;;;;;;;;;;5001907;28;20089;-69
2022/05/29 06:59:20;;;;;;;8.38;2.88;;;;;;;;;;4986335;28;20083;-70
2022/05/29 07:07:33;;;;;;;10.05;2.90;;;;;;;;;;4928916;28;20488;-70
2022/05/29 07:09:59;;;;;;;10.10;2.67;;;;;;;;;;4988379;28;20427;-69
2022/05/29 07:12:27;;;;;;;8.23;2.13;;;;;;;;;;4983886;28;20013;-69
2022/05/29 07:14:55;;;;;;;11.13;2.90;;;;;;;;;;5002772;28;20037;-70
2022/05/29 07:17:22;;;;;;;11.48;3.20;;;;;;;;;;4982333;28;20108;-69
2022/05/29 07:19:48;;;;;;;10.38;2.53;;;;;;;;;;5003602;28;20451;-69
2022/05/29 07:22:13;;;;;;;12.45;2.42;;;;;;;;;;4984837;28;20036;-68
2022/05/29 07:24:40;;;;;;;9.52;2.35;;;;;;;;;;4970029;28;20021;-68
2022/05/29 07:27:05;;;;;;;10.52;2.55;;;;;;;;;;5001777;28;20030;-67
2022/05/29 07:29:31;;;;;;;8.73;2.45;;;;;;;;;;5002467;28;20771;-67
2022/05/29 07:31:56;;;;;;;8.48;2.38;;;;;;;;;;4963084;28;20132;-68
2022/05/29 07:34:22;;;;;;;14.45;2.47;;;;;;;;;;4969510;28;20464;-68
2022/05/29 07:36:49;;;;;;;9.32;2.63;;;;;;;;;;5001082;28;20018;-68
2022/05/29 07:39:15;;;;;;;9.02;2.10;;;;;;;;;;5004351;28;20028;-68
2022/05/29 07:44:24;;;;;;;10.93;2.42;;;;;;;;;;5002657;28;20053;-67
2022/05/29 07:46:49;;;;;;;10.48;2.13;;;;;;;;;;4978811;28;20029;-68
2022/05/29 07:49:15;;;;;;;7.45;1.90;;;;;;;;;;4984994;28;20033;-69
2022/05/29 07:51:41;;;;;;;8.55;2.33;;;;;;;;;;4982300;28;20495;-69
2022/05/29 07:54:06;;;;;;;9.30;1.80;;;;;;;;;;5005137;28;20476;-68
2022/05/29 07:56:31;;;;;;;6.88;1.98;;;;;;;;;;4965333;28;20040;-68
2022/05/29 07:58:57;;;;;;;9.05;1.88;;;;;;;;;;4988456;28;20091;-67
2022/05/29 08:01:22;;;;;;;8.32;1.70;;;;;;;;;;4997069;28;20057;-67
2022/05/29 08:03:48;;;;;;;6.93;1.95;;;;;;;;;;4983576;28;20026;-68
2022/05/29 08:06:13;;;;;;;7.50;1.75;;;;;;;;;;4999916;28;20112;-67
2022/05/29 08:08:39;;;;;;;9.82;1.98;;;;;;;;;;4982801;28;20057;-67
2022/05/29 08:11:04;;;;;;;13.60;2.13;;;;;;;;;;4981463;28;20061;-68
2022/05/29 08:13:30;;;;;;;9.38;2.05;;;;;;;;;;4998951;28;20029;-68
2022/05/29 08:15:56;;;;;;;7.03;2.05;;;;;;;;;;4998085;28;20022;-68
2022/05/29 08:18:21;;;;;;;7.65;1.80;;;;;;;;;;4977816;28;20443;-67
2022/05/29 08:20:47;;;;;;;5.28;1.65;;;;;;;;;;4977736;28;21970;-69
2022/05/29 08:23:12;;;;;;;4.90;1.38;;;;;;;;;;4986229;28;20033;-68
2022/05/29 08:31:06;;;;;;;6.22;1.20;;;;;;;;;;4985015;28;20036;-67
2022/05/29 08:33:32;;;;;;;5.45;1.38;;;;;;;;;;4967809;28;20022;-67
2022/05/29 08:35:57;;;;;;;2.45;0.98;;;;;;;;;;5004539;28;21525;-67
2022/05/29 08:38:23;;;;;;;2.42;1.23;;;;;;;;;;4984043;28;20026;-68
2022/05/29 08:40:51;;;;;;;2.03;0.88;;;;;;;;;;4999066;28;20540;-68
2022/05/29 08:43:29;;;;;;;1.77;0.65;;;;;;;;;;5002629;28;20014;-67
2022/05/29 08:45:54;;;;;;;2.78;0.90;;;;;;;;;;4986372;28;20040;-68
2022/05/29 08:48:23;;;;;;;4.82;0.98;;;;;;;;;;4999228;28;20022;-68
2022/05/29 08:50:54;;;;;;;5.20;1.30;;;;;;;;;;4984748;28;20053;-69
2022/05/29 08:53:38;;;;;;;2.38;0.75;;;;;;;;;;5001743;28;20021;-68
2022/05/29 08:56:10;;;;;;;2.97;1.08;;;;;;;;;;4981225;28;20119;-69
2022/05/29 08:58:40;;;;;;;5.37;1.10;;;;;;;;;;5000115;28;20048;-68
2022/05/29 09:01:06;;;;;;;2.10;0.90;;;;;;;;;;4999745;28;20281;-69
2022/05/29 09:03:40;;;;;;;7.10;1.10;;;;;;;;;;4981128;28;20503;-70
2022/05/29 09:06:09;;;;;;;4.32;1.10;;;;;;;;;;5000147;28;20036;-70
2022/05/29 09:08:41;;;;;;;6.32;1.27;;;;;;;;;;4981369;28;20033;-69
2022/05/29 09:11:10;;;;;;;6.03;1.17;;;;;;;;;;4981208;28;20025;-69
2022/05/29 09:13:37;;;;;;;6.95;1.00;;;;;;;;;;5001240;28;20026;-68
2022/05/29 09:16:11;;;;;;;5.30;1.42;;;;;;;;;;5000732;28;20014;-69
2022/05/29 09:18:38;;;;;;;6.72;1.10;;;;;;;;;;4983891;28;20037;-69
2022/05/29 09:21:03;;;;;;;6.80;1.10;;;;;;;;;;4982383;28;20100;-68
2022/05/29 09:23:31;;;;;;;7.80;1.50;;;;;;;;;;4965685;28;20063;-69
2022/05/29 09:25:57;;;;;;;5.90;1.40;;;;;;;;;;4974474;28;20560;-69
2022/05/29 09:28:29;;;;;;;7.38;1.15;;;;;;;;;;4985163;28;20105;-68
2022/05/29 09:31:02;;;;;;;9.73;1.33;;;;;;;;;;4981148;28;20063;-68
2022/05/29 09:33:29;;;;;;;6.22;1.40;;;;;;;;;;4995468;28;20117;-68
2022/05/29 09:35:57;;;;;;;6.68;1.20;;;;;;;;;;4967231;28;20025;-68
2022/05/29 09:38:41;;;;;;;9.68;1.40;;;;;;;;;;5000385;28;20018;-70
2022/05/29 09:41:25;;;;;;;5.82;1.27;;;;;;;;;;4980413;28;20121;-68
2022/05/29 09:44:09;;;;;;;12.02;2.10;;;;;;;;;;4963531;28;20065;-67
2022/05/29 09:46:36;;;;;;;9.15;1.80;;;;;;;;;;4979838;28;20018;-67
2022/05/29 09:51:49;;;;;;;11.30;1.90;;;;;;;;;;4998646;28;20099;-68
2022/05/29 09:54:37;;;;;;;7.18;2.00;;;;;;;;;;5004174;28;20464;-69
2022/05/29 09:57:05;;;;;;;9.13;2.45;;;;;;;;;;4988739;28;20040;-70
2022/05/29 09:59:30;;;;;;;12.18;3.08;;;;;;;;;;5001175;28;20105;-69
2022/05/29 10:02:03;;;;;;;6.50;1.60;;;;;;;;;;4967691;28;20108;-68
2022/05/29 10:04:39;;;;;;;7.07;1.80;;;;;;;;;;4999612;28;20084;-69
2022/05/29 10:07:17;;;;;;;4.50;1.63;;;;;;;;;;4986285;28;20022;-67
2022/05/29 10:10:14;;;;;;;11.85;2.53;;;;;;;;;;4983811;28;20026;-67
2022/05/29 10:12:44;;;;;;;9.70;1.85;;;;;;;;;;4959842;28;20040;-68
2022/05/29 10:15:33;;;;;;;9.32;1.70;;;;;;;;;;5000117;28;20018;-68
2022/05/29 10:18:01;;;;;;;6.28;1.50;;;;;;;;;;4992898;28;20026;-68
2022/05/29 10:20:31;;;;;;;8.25;1.80;;;;;;;;;;4982803;28;20536;-69
2022/05/29 10:23:01;;;;;;;5.43;1.50;;;;;;;;;;4988501;28;20117;-68
2022/05/29 10:25:28;;;;;;;8.77;2.20;;;;;;;;;;4998074;28;20032;-68
2022/05/29 10:27:55;;;;;;;10.25;2.00;;;;;;;;;;4983952;28;20064;-68
2022/05/29 10:30:26;;;;;;;9.00;1.70;;;;;;;;;;4996610;28;20021;-68
2022/05/29 10:32:58;;;;;;;6.97;1.80;;;;;;;;;;4998528;28;20326;-69
2022/05/29 10:35:27;;;;;;;5.93;1.52;;;;;;;;;;4979916;28;20048;-69
2022/05/29 10:37:53;;;;;;;7.93;1.75;;;;;;;;;;4998883;28;20171;-68
2022/05/29 10:40:24;;;;;;;8.70;1.70;;;;;;;;;;4996245;28;20355;-69
2022/05/29 10:42:57;;;;;;;9.02;1.52;;;;;;;;;;4998877;28;20307;-68
2022/05/29 10:45:27;;;;;;;5.68;1.45;;;;;;;;;;4999742;28;20071;-69
2022/05/29 10:48:12;;;;;;;12.43;1.67;;;;;;;;;;4981145;28;20060;-66
2022/05/29 10:50:40;;;;;;;6.95;1.33;;;;;;;;;;4976025;28;20503;-68
2022/05/29 10:53:24;;;;;;;4.68;1.27;;;;;;;;;;5000885;28;20036;-68
2022/05/29 10:55:52;;;;;;;5.30;1.50;;;;;;;;;;4977416;28;20022;-68
2022/05/29 10:58:30;;;;;;;7.75;1.38;;;;;;;;;;4999347;28;20472;-67
2022/05/29 11:00:56;;;;;;;7.03;1.70;;;;;;;;;;4980011;28;20186;-68
2022/05/29 11:03:39;;;;;;;6.10;1.80;;;;;;;;;;4998187;28;20017;-68
2022/05/29 11:06:17;;;;;;;8.60;1.58;;;;;;;;;;4999249;28;20093;-68
2022/05/29 11:08:57;;;;;;;8.02;1.85;;;;;;;;;;4978996;28;20028;-68
2022/05/29 11:11:29;;;;;;;12.07;2.53;;;;;;;;;;4978430;28;20456;-68
2022/05/29 11:14:06;;;;;;;5.10;1.38;;;;;;;;;;4980542;28;20321;-67
2022/05/29 11:16:40;;;;;;;7.05;1.48;;;;;;;;;;5000999;28;20022;-69
2022/05/29 11:19:06;;;;;;;6.03;1.70;;;;;;;;;;5000132;28;20022;-68
2022/05/29 11:21:31;;;;;;;7.22;1.48;;;;;;;;;;5001967;28;20104;-68
2022/05/29 11:24:19;;;;;;;8.18;1.80;;;;;;;;;;4982462;28;20429;-68
2022/05/29 11:26:48;;;;;;;5.70;1.50;;;;;;;;;;4975099;28;20057;-68
2022/05/29 11:29:25;;;;;;;8.32;1.88;;;;;;;;;;5000125;28;20116;-69
2022/05/29 11:31:50;;;;;;;8.52;1.60;;;;;;;;;;5001133;28;20013;-69
2022/05/29 11:34:34;;;;;;;8.45;2.08;;;;;;;;;;5000534;28;20413;-67
2022/05/29 11:37:18;;;;;;;6.85;1.42;;;;;;;;;;4983404;28;20043;-68
2022/05/29 11:39:45;;;;;;;6.18;1.60;;;;;;;;;;5000564;28;20033;-68
2022/05/29 11:42:16;;;;;;;4.82;1.33;;;;;;;;;;5001356;28;20088;-67
2022/05/29 11:44:51;;;;;;;6.53;1.30;;;;;;;;;;5002188;28;20350;-68
2022/05/29 11:51:07;;;;;;;6.75;1.30;;;;;;;;;;4995830;28;20299;-68
2022/05/29 11:53:21;;;;;;;7.70;2.13;;;;;;;;;;5002608;28;20444;-67
2022/05/29 11:55:47;;;;;;;5.32;1.40;;;;;;;;;;4997450;28;20021;-68
2022/05/29 11:58:13;;;;;;;10.80;1.90;;;;;;;;;;5003755;28;20371;-68
2022/05/29 12:00:42;;;;;;;6.47;1.63;;;;;;;;;;4985714;28;20057;-68
2022/05/29 12:03:19;;;;;;;6.50;1.65;;;;;;;;;;4987162;28;20018;-67
2022/05/29 12:05:55;;;;;;;8.30;1.63;;;;;;;;;;4982657;28;20502;-69
2022/05/29 12:08:29;;;;;;;6.55;1.75;;;;;;;;;;5003497;28;20017;-69
2022/05/29 12:11:06;;;;;;;5.78;1.17;;;;;;;;;;5000816;28;20018;-69
2022/05/29 12:13:35;;;;;;;6.53;1.60;;;;;;;;;;5003036;28;20095;-69
2022/05/29 12:16:08;;;;;;;5.25;1.30;;;;;;;;;;5001536;28;20488;-67
2022/05/29 12:18:39;;;;;;;6.88;1.52;;;;;;;;;;4978823;28;20525;-68
2022/05/29 12:21:05;;;;;;;6.55;1.38;;;;;;;;;;4984229;28;20026;-68
2022/05/29 12:23:41;;;;;;;6.82;1.77;;;;;;;;;;4983978;28;20439;-68
2022/05/29 12:26:19;;;;;;;10.25;1.90;;;;;;;;;;4983514;28;20483;-67
2022/05/29 12:28:47;;;;;;;7.38;1.45;;;;;;;;;;5001015;28;20397;-67
2022/05/29 12:31:32;;;;;;;9.20;1.85;;;;;;;;;;4983931;28;20380;-68
2022/05/29 12:33:58;;;;;;;4.43;1.10;;;;;;;;;;4976897;28;20056;-68
2022/05/29 12:36:24;;;;;;;4.20;1.20;;;;;;;;;;5004475;28;20029;-69
2022/05/29 12:38:49;;;;;;;5.43;1.13;;;;;;;;;;5000902;28;20121;-68
2022/05/29 12:41:20;;;;;;;8.88;1.67;;;;;;;;;;5000014;28;20116;-67
2022/05/29 12:44:06;;;;;;;6.97;1.38;;;;;;;;;;4981352;28;20084;-67
2022/05/29 12:46:39;;;;;;;4.50;1.10;;;;;;;;;;5003753;28;20105;-67
2022/05/29 12:49:07;;;;;;;4.85;1.20;;;;;;;;;;4995735;28;20500;-68
2022/05/29 12:51:42;;;;;;;7.38;1.60;;;;;;;;;;4983013;28;20172;-68
2022/05/29 12:54:28;;;;;;;4.05;1.30;;;;;;;;;;4982735;28;20067;-68
2022/05/29 12:57:12;;;;;;;8.02;1.52;;;;;;;;;;4996646;28;20101;-68
2022/05/29 12:59:56;;;;;;;6.55;1.23;;;;;;;;;;4985171;28;21134;-69
2022/05/29 13:02:21;;;;;;;4.18;1.00;;;;;;;;;;4985971;28;20428;-69
2022/05/29 13:04:56;;;;;;;5.38;1.02;;;;;;;;;;4979128;28;20045;-66
2022/05/29 13:07:32;;;;;;;4.70;0.98;;;;;;;;;;4985078;28;20514;-68
2022/05/29 13:10:11;;;;;;;2.53;1.45;;;;;;;;;;4980096;28;20056;-67
2022/05/29 13:12:42;;;;;;;5.78;1.10;;;;;;;;;;4984941;28;20435;-69
2022/05/29 13:15:10;;;;;;;4.07;1.20;;;;;;;;;;4980159;28;20401;-68
2022/05/29 13:17:35;;;;;;;5.10;1.00;;;;;;;;;;5001550;28;20077;-68
2022/05/29 13:20:04;;;;;;;4.80;1.15;;;;;;;;;;4976045;28;20424;-68
2022/05/29 13:22:48;;;;;;;5.10;1.20;;;;;;;;;;5003049;28;20487;-67
2022/05/29 13:25:14;;;;;;;3.40;0.80;;;;;;;;;;4980577;28;20327;-72
2022/05/29 13:27:39;;;;;;;2.65;0.90;;;;;;;;;;4984160;28;20042;-71
2022/05/29 13:30:06;;;;;;;4.13;1.15;;;;;;;;;;4998259;28;20025;-69
2022/05/29 13:32:33;;;;;;;4.70;1.10;;;;;;;;;;4986508;28;20064;-71
2022/05/29 13:35:04;;;;;;;6.03;1.00;;;;;;;;;;4992703;28;20201;-71
2022/05/29 13:37:32;;;;;;;4.60;1.05;;;;;;;;;;5002568;28;20037;-68
2022/05/29 13:40:00;;;;;;;3.63;1.10;;;;;;;;;;4998476;28;20110;-69
2022/05/29 13:42:27;;;;;;;2.63;0.77;;;;;;;;;;4986029;28;20075;-71
2022/05/29 13:44:53;;;;;;;4.22;0.80;;;;;;;;;;4980153;28;20041;-70
2022/05/29 13:47:18;;;;;;;4.35;1.10;;;;;;;;;;4986398;28;20396;-70
2022/05/29 13:49:45;;;;;;;5.45;1.25;;;;;;;;;;4979596;28;20117;-71
2022/05/29 13:52:16;;;;;;;4.68;1.27;;;;;;;;;;5001085;28;20191;-71
2022/05/29 13:54:44;;;;;;;3.65;1.10;;;;;;;;;;4973182;28;20109;-68
2022/05/29 13:57:24;;;;;;;5.75;1.45;;;;;;;;;;4999758;28;20792;-70
2022/05/29 14:05:38;;;;;;;4.60;1.38;;;;;;;;;;4996478;28;20088;-70
2022/05/29 14:08:19;;;;;;;3.65;1.40;;;;;;;;;;5002100;28;20022;-73
2022/05/29 14:11:06;;;;;;;7.65;1.48;;;;;;;;;;4999583;28;20097;-71
2022/05/29 14:13:32;;;;;;;5.13;1.30;;;;;;;;;;5003895;28;20093;-69
2022/05/29 14:15:58;;;;;;;4.35;1.55;;;;;;;;;;4998842;28;20121;-69
2022/05/29 14:18:29;;;;;;;5.75;1.92;;;;;;;;;;4999535;28;20491;-70
2022/05/29 14:21:13;;;;;;;8.50;1.42;;;;;;;;;;4995898;28;20435;-69
2022/05/29 14:24:02;;;;;;;4.63;1.30;;;;;;;;;;5000025;28;20018;-71
2022/05/29 14:26:45;;;;;;;4.82;1.35;;;;;;;;;;4962886;28;20274;-70
2022/05/29 14:29:17;;;;;;;8.98;1.40;;;;;;;;;;4998765;28;20197;-70
2022/05/29 14:31:51;;;;;;;4.95;1.30;;;;;;;;;;4982727;28;20026;-69
2022/05/29 14:34:17;;;;;;;4.82;1.42;;;;;;;;;;4978140;28;20612;-71
2022/05/29 14:36:42;;;;;;;5.85;1.40;;;;;;;;;;4980475;28;20499;-72
2022/05/29 14:39:19;;;;;;;4.00;1.33;;;;;;;;;;4999216;28;20519;-71
2022/05/29 14:41:53;;;;;;;6.53;1.30;;;;;;;;;;4983432;28;20030;-69
2022/05/29 14:44:26;;;;;;;3.97;1.45;;;;;;;;;;4983127;28;20133;-69
2022/05/29 14:49:31;;;;;;;4.88;1.17;;;;;;;;;;4994198;28;20060;-69
2022/05/29 14:52:03;;;;;;;4.47;1.17;;;;;;;;;;4981112;28;20022;-69
2022/05/29 14:54:36;;;;;;;6.38;1.15;;;;;;;;;;5001039;28;20105;-72
2022/05/29 14:57:03;;;;;;;4.53;1.20;;;;;;;;;;4981434;28;20350;-72
2022/05/29 14:59:33;;;;;;;6.55;1.17;;;;;;;;;;4983149;28;20026;-71
2022/05/29 15:02:00;;;;;;;6.90;1.60;;;;;;;;;;4999520;28;20026;-70
2022/05/29 15:04:32;;;;;;;7.28;1.55;;;;;;;;;;5000968;28;20128;-69
2022/05/29 15:12:41;;;;;;;5.28;0.90;;;;;;;;;;5007206;28;20040;-70
2022/05/29 15:15:06;;;;;;;;;;;;;;;;;;4999601;28;20125;-67
2022/05/29 15:17:31;;;;;;;4.35;1.08;;;;;;;;;;4987231;28;20095;-67
2022/05/29 15:25:24;;;;;;;4.00;0.90;;;;;;;;;;5002317;28;20040;-66
2022/05/29 15:27:52;;;;;;;3.42;0.75;;;;;;;;;;4986581;28;20018;-64
2022/05/29 15:30:19;;;;;;;5.40;1.17;;;;;;;;;;4992951;28;20033;-65
2022/05/29 15:32:46;;;;;;;10.02;1.35;;;;;;;;;;4989215;28;20020;-65
2022/05/29 15:35:30;;;;;;;6.55;1.35;;;;;;;;;;4977511;28;20211;-64
2022/05/29 15:38:10;;;;;;;5.18;1.23;;;;;;;;;;4987705;28;20029;-65
2022/05/29 15:40:55;;;;;;;3.60;0.90;;;;;;;;;;4985060;28;20765;-64
2022/05/29 15:43:23;;;;;;;3.40;1.00;;;;;;;;;;4984582;28;20805;-64